Monday, February 18, 2019, 6:05 AM EST
Back to Local

KRKD, Rockland, Knox County Regional Airport

Location: Owls Head, ME, United States Lat: 44.067
Local Time: 6:05 AM EST (11:05 GMT) Lon: -69.1
Time Zone: US/Eastern Elev: 55 ft

Show me the last for .
Show Decoded

2019-02-18 04:56 METAR KRKD 180956Z AUTO 04010KT 9SM -SN OVC060 M06/M12 A3000 RMK AO2 SNB42
                 SLP159 P0000 T10561117 FZRANO =
2019-02-18 03:56 METAR KRKD 180856Z AUTO 04009KT 10SM BKN075 OVC095 M06/M12 A3001 RMK AO2 SLP164
                 T10561117 56013 FZRANO =
2019-02-18 02:56 METAR KRKD 180756Z AUTO 04008KT 10SM FEW110 M05/M12 A3002 RMK AO2 SLP166
                 T10501122 FZRANO =
2019-02-18 01:56 METAR KRKD 180656Z AUTO 05007KT 10SM BKN100 M05/M12 A3003 RMK AO2 SLP171
                 T10501117 FZRANO =
2019-02-18 00:56 METAR KRKD 180556Z AUTO 04006KT 10SM BKN100 BKN120 M04/M11 A3005 RMK AO2 SLP177
                 T10391106 11039 21072 57005 FZRANO =
2019-02-17 23:56 METAR KRKD 180456Z AUTO 05005KT 10SM SCT110 M04/M11 A3007 RMK AO2 SLP184
                 T10441111 410221100 FZRANO =
2019-02-17 22:56 METAR KRKD 180356Z AUTO VRB04KT 10SM CLR M05/M08 A3004 RMK AO2 SLP175 T10501083
                 FZRANO =
2019-02-17 21:56 METAR KRKD 180256Z AUTO 00000KT 10SM CLR M06/M09 A3006 RMK AO2 SLP182 T10611089
                 58001 FZRANO =
2019-02-17 19:56 METAR KRKD 180056Z AUTO 00000KT 10SM CLR M06/M09 A3005 RMK AO2 SLP179 T10611094
                 FZRANO =
2019-02-17 18:56 METAR KRKD 172356Z AUTO 00000KT 10SM CLR M05/M09 A3007 RMK AO2 SLP183 T10501089
                 11022 21050 56008 FZRANO =
2019-02-17 17:56 METAR KRKD 172256Z AUTO 00000KT 10SM CLR M04/M09 A3007 RMK AO2 SLP185 T10391094
                 FZRANO =
2019-02-17 16:56 METAR KRKD 172156Z AUTO 00000KT 10SM CLR M03/M11 A3007 RMK AO2 SLP183 T10331106
                 FZRANO =
2019-02-17 15:56 METAR KRKD 172056Z AUTO 16005KT 10SM CLR M03/M12 A3009 RMK AO2 SLP191 T10281117
                 53009 FZRANO =
2019-02-17 14:56 METAR KRKD 171956Z AUTO 10007KT 10SM CLR M03/M12 A3006 RMK AO2 SLP180 T10281117
                 FZRANO =
2019-02-17 13:56 METAR KRKD 171856Z AUTO 13004KT 10SM CLR M02/M13 A3007 RMK AO2 SLP184 T10221133
                 FZRANO =
2019-02-17 12:56 METAR KRKD 171756Z AUTO 31004KT 10SM CLR M03/M16 A3006 RMK AO2 SLP182 T10331156
                 11028 21083 58015 FZRANO =
2019-02-17 11:56 METAR KRKD 171656Z AUTO VRB05KT 10SM CLR M03/M16 A3009 RMK AO2 SLP190 T10331156
                 FZRANO =
2019-02-17 10:56 METAR KRKD 171556Z AUTO 29005KT 10SM CLR M05/M14 A3010 RMK AO2 SLP196 T10501144
                 FZRANO =
2019-02-17 09:56 METAR KRKD 171456Z AUTO VRB04KT 10SM CLR M06/M14 A3011 RMK AO2 SLP197 T10561139
                 51015 FZRANO =
2019-02-17 08:56 METAR KRKD 171356Z AUTO 30008KT 10SM CLR M07/M14 A3010 RMK AO2 SLP194 T10721139
                 FZRANO =
2019-02-17 07:56 METAR KRKD 171256Z AUTO 00000KT 10SM CLR M08/M13 A3009 RMK AO2 SLP193 T10781133
                 FZRANO =
2019-02-17 06:56 METAR KRKD 171156Z AUTO 33003KT 10SM CLR M08/M13 A3006 RMK AO2 SLP182 T10831133
                 11061 21100 53022 FZRANO =

Support USWX by starting your Amazon purchase here.